createdAt,value
2022-11-06T00:00:52.909Z,99105.59
2022-11-06T00:03:20.329Z,99114.22
2022-11-06T00:06:06.051Z,99109.69
2022-11-06T00:08:34.885Z,99117.75
2022-11-06T00:11:02.221Z,99121.91
2022-11-06T00:13:29.341Z,99110.16
2022-11-06T00:15:56.698Z,99113.59
2022-11-06T00:18:25.515Z,99117.50
2022-11-06T00:20:52.663Z,99122.72
2022-11-06T00:23:20.021Z,99122.06
2022-11-06T00:25:47.125Z,99118.53
2022-11-06T00:28:14.538Z,99121.16
2022-11-06T00:30:42.225Z,99119.41
2022-11-06T00:33:10.693Z,99122.00
2022-11-06T00:35:38.918Z,99111.22
2022-11-06T00:38:06.361Z,99109.41
2022-11-06T00:40:33.539Z,99099.69
2022-11-06T00:43:00.678Z,99110.81
2022-11-06T00:45:28.062Z,99112.66
2022-11-06T00:47:55.174Z,99117.16
2022-11-06T00:50:26.339Z,99109.22
2022-11-06T00:52:54.654Z,99101.78
2022-11-06T00:55:21.794Z,99114.09
2022-11-06T00:57:48.886Z,99111.13
2022-11-06T01:00:18.127Z,99110.19
2022-11-06T01:02:45.716Z,99107.50
2022-11-06T01:05:13.196Z,99112.69
2022-11-06T01:07:40.972Z,99107.03
2022-11-06T01:10:08.197Z,99109.16
2022-11-06T01:12:35.374Z,99115.34
2022-11-06T01:15:02.931Z,99125.41
2022-11-06T01:17:30.128Z,99115.84
2022-11-06T01:19:57.258Z,99118.63
2022-11-06T01:22:24.646Z,99120.97
2022-11-06T01:24:51.809Z,99131.16
2022-11-06T01:27:27.350Z,99126.06
2022-11-06T01:29:55.263Z,99124.53
2022-11-06T01:32:22.379Z,99121.69
2022-11-06T01:34:50.187Z,99124.16
2022-11-06T01:37:17.561Z,99118.69
2022-11-06T01:39:44.752Z,99117.97
2022-11-06T01:42:12.713Z,99117.28
2022-11-06T01:44:43.234Z,99116.31
2022-11-06T01:47:19.549Z,99113.84
2022-11-06T01:49:46.936Z,99121.91
2022-11-06T01:52:14.332Z,99117.03
2022-11-06T01:54:42.005Z,99117.13
2022-11-06T01:57:09.390Z,99118.81
2022-11-06T01:59:38.051Z,99124.34
2022-11-06T02:02:05.522Z,99125.19
2022-11-06T02:04:33.972Z,99129.38
2022-11-06T02:07:01.165Z,99124.78
2022-11-06T02:09:28.316Z,99129.88
2022-11-06T02:11:58.554Z,99137.44
2022-11-06T02:14:33.286Z,99128.00
2022-11-06T02:17:12.889Z,99130.31
2022-11-06T02:19:58.808Z,99128.28
2022-11-06T02:22:35.350Z,99137.78
2022-11-06T02:25:21.241Z,99146.13
2022-11-06T02:27:54.508Z,99142.19
2022-11-06T02:30:21.630Z,99141.84
2022-11-06T02:32:52.121Z,99149.69
2022-11-06T02:35:29.594Z,99145.44
2022-11-06T02:37:59.153Z,99149.09
2022-11-06T02:40:26.634Z,99157.53
2022-11-06T02:42:54.325Z,99154.87
2022-11-06T02:45:21.732Z,99158.88
2022-11-06T02:47:50.095Z,99165.88
2022-11-06T02:50:18.997Z,99162.34
2022-11-06T02:52:56.192Z,99170.22
2022-11-06T02:55:25.574Z,99165.69
2022-11-06T02:57:54.555Z,99165.97
2022-11-06T03:00:23.759Z,99175.53
2022-11-06T03:03:01.125Z,99172.84
2022-11-06T03:06:00.964Z,99176.75
2022-11-06T03:08:33.581Z,99171.69
2022-11-06T03:11:06.766Z,99172.38
2022-11-06T03:13:33.829Z,99174.91
2022-11-06T03:16:04.955Z,99183.66
2022-11-06T03:18:51.831Z,99180.00
2022-11-06T03:21:21.669Z,99187.16
2022-11-06T03:23:55.903Z,99188.62
2022-11-06T03:26:23.198Z,99196.53
2022-11-06T03:28:54.419Z,99189.22
2022-11-06T03:31:29.727Z,99191.09
2022-11-06T03:34:02.580Z,99200.09
2022-11-06T03:36:31.293Z,99201.97
2022-11-06T03:38:59.457Z,99203.47
2022-11-06T03:41:30.158Z,99203.84
2022-11-06T03:43:57.791Z,99202.78
2022-11-06T03:46:25.245Z,99209.94
2022-11-06T03:48:53.475Z,99211.44
2022-11-06T03:51:43.552Z,99207.72
2022-11-06T03:54:14.404Z,99204.94
2022-11-06T03:56:48.707Z,99206.06
2022-11-06T03:59:19.211Z,99216.72
2022-11-06T04:01:46.392Z,99211.84
2022-11-06T04:04:17.387Z,99214.59
2022-11-06T04:06:46.320Z,99219.25
2022-11-06T04:09:32.927Z,99214.81
2022-11-06T04:12:18.882Z,99206.53
2022-11-06T04:14:47.010Z,99220.78
2022-11-06T04:17:14.485Z,99219.84
2022-11-06T04:19:47.317Z,99213.97
2022-11-06T04:22:40.922Z,99217.41
2022-11-06T04:25:38.936Z,99215.63
2022-11-06T04:28:19.895Z,99209.22
2022-11-06T04:30:54.213Z,99221.88
2022-11-06T04:33:21.662Z,99220.31
2022-11-06T04:35:48.717Z,99218.63
2022-11-06T04:38:20.147Z,99218.59
2022-11-06T04:40:59.701Z,99212.31
2022-11-06T04:43:35.921Z,99215.91
2022-11-06T04:46:03.310Z,99218.47
2022-11-06T04:48:30.416Z,99219.53
2022-11-06T04:50:59.493Z,99224.63
2022-11-06T04:53:26.866Z,99222.91
2022-11-06T04:55:55.105Z,99223.69
2022-11-06T04:58:22.205Z,99226.19
2022-11-06T05:00:50.159Z,99223.81
2022-11-06T05:03:17.603Z,99227.31
2022-11-06T05:05:45.100Z,99220.97
2022-11-06T05:08:16.508Z,99223.78
2022-11-06T05:10:45.049Z,99220.97
2022-11-06T05:13:12.428Z,99217.72
2022-11-06T05:15:39.557Z,99230.81
2022-11-06T05:18:06.862Z,99225.59
2022-11-06T05:20:34.230Z,99226.25
2022-11-06T05:23:01.344Z,99225.53
2022-11-06T05:25:28.619Z,99232.47
2022-11-06T05:27:56.034Z,99228.91
2022-11-06T05:30:23.562Z,99237.44
2022-11-06T05:32:50.706Z,99233.41
2022-11-06T05:35:18.470Z,99248.13
2022-11-06T05:37:45.575Z,99244.72
2022-11-06T05:40:12.821Z,99249.03
2022-11-06T05:42:40.450Z,99249.06
2022-11-06T05:45:07.931Z,99257.59
2022-11-06T05:47:35.044Z,99249.91
2022-11-06T05:50:02.504Z,99262.97
2022-11-06T05:52:29.653Z,99262.06
2022-11-06T05:54:56.765Z,99259.31
2022-11-06T05:57:24.152Z,99271.63
2022-11-06T05:59:51.261Z,99268.94
2022-11-06T06:02:18.487Z,99269.00
2022-11-06T06:04:45.917Z,99277.37
2022-11-06T06:07:13.027Z,99287.88
2022-11-06T06:09:40.136Z,99290.47
2022-11-06T06:12:08.122Z,99293.41
2022-11-06T06:14:35.458Z,99293.19
2022-11-06T06:17:02.567Z,99292.47
2022-11-06T06:19:29.937Z,99296.84
2022-11-06T06:21:57.320Z,99296.75
2022-11-06T06:24:25.513Z,99299.50
2022-11-06T06:26:52.894Z,99302.91
2022-11-06T06:29:19.993Z,99302.94
2022-11-06T06:31:47.132Z,99303.84
2022-11-06T06:34:14.512Z,99310.66
2022-11-06T06:36:41.606Z,99311.38
2022-11-06T06:39:08.734Z,99311.66
2022-11-06T06:41:36.306Z,99312.53
2022-11-06T06:44:03.419Z,99318.59
2022-11-06T06:46:30.570Z,99324.69
2022-11-06T06:48:57.946Z,99333.25
2022-11-06T06:51:25.076Z,99337.72
2022-11-06T06:54:10.774Z,99334.25
2022-11-06T06:56:38.163Z,99339.44
2022-11-06T06:59:05.327Z,99338.66
2022-11-06T07:01:32.944Z,99343.81
2022-11-06T07:04:04.162Z,99344.72
2022-11-06T07:06:32.342Z,99347.13
2022-11-06T07:08:59.555Z,99339.38
2022-11-06T07:11:26.967Z,99343.84
2022-11-06T07:13:54.132Z,99342.94
2022-11-06T07:16:21.847Z,99349.03
2022-11-06T07:18:49.218Z,99350.72
2022-11-06T07:21:16.321Z,99349.06
2022-11-06T07:23:43.520Z,99349.88
2022-11-06T07:26:10.894Z,99348.78
2022-11-06T07:28:38.230Z,99354.19
2022-11-06T07:31:06.300Z,99357.72
2022-11-06T07:33:33.852Z,99371.50
2022-11-06T07:36:11.954Z,99362.91
2022-11-06T07:38:40.131Z,99362.13
2022-11-06T07:41:08.660Z,99359.50
2022-11-06T07:43:35.970Z,99367.28
2022-11-06T07:46:04.239Z,99369.91
2022-11-06T07:48:31.673Z,99367.31
2022-11-06T07:50:58.825Z,99369.94
2022-11-06T07:53:26.298Z,99370.81
2022-11-06T07:55:54.217Z,99377.69
2022-11-06T07:58:21.373Z,99373.44
2022-11-06T08:00:49.429Z,99375.84
2022-11-06T08:03:17.109Z,99376.84
2022-11-06T08:05:44.239Z,99376.66
2022-11-06T08:08:11.776Z,99368.16
2022-11-06T08:10:40.600Z,99375.06
2022-11-06T08:13:07.716Z,99373.38
2022-11-06T08:15:34.826Z,99369.91
2022-11-06T08:18:02.315Z,99374.22
2022-11-06T08:20:29.463Z,99367.19
2022-11-06T08:23:00.200Z,99368.94
2022-11-06T08:25:27.779Z,99363.75
2022-11-06T08:27:55.896Z,99379.44
2022-11-06T08:30:23.042Z,99373.41
2022-11-06T08:32:50.495Z,99372.41
2022-11-06T08:35:18.840Z,99379.31
2022-11-06T08:37:46.038Z,99376.59
2022-11-06T08:40:13.587Z,99374.16
2022-11-06T08:42:40.700Z,99374.16
2022-11-06T08:45:08.149Z,99379.44
2022-11-06T08:47:35.559Z,99376.81
2022-11-06T08:50:02.682Z,99367.19
2022-11-06T08:52:33.912Z,99371.47
2022-11-06T08:55:02.206Z,99372.53
2022-11-06T08:57:29.359Z,99374.94
2022-11-06T08:59:56.463Z,99371.53
2022-11-06T09:02:23.922Z,99371.62
2022-11-06T09:04:51.112Z,99384.69
2022-11-06T09:07:18.318Z,99380.16
2022-11-06T09:09:45.682Z,99374.28
2022-11-06T09:12:12.832Z,99376.69
2022-11-06T09:14:40.270Z,99372.31
2022-11-06T09:17:07.662Z,99370.34
2022-11-06T09:19:34.799Z,99373.03
2022-11-06T09:22:01.925Z,99363.75
2022-11-06T09:24:57.251Z,99366.97
2022-11-06T09:27:16.464Z,99361.56
2022-11-06T09:29:44.573Z,99359.22
2022-11-06T09:32:11.841Z,99357.12
2022-11-06T09:34:39.014Z,99351.88
2022-11-06T09:37:06.392Z,99356.16
2022-11-06T09:39:33.529Z,99349.38
2022-11-06T09:42:01.575Z,99351.81
2022-11-06T09:44:38.107Z,99352.19
2022-11-06T09:47:06.315Z,99347.59
2022-11-06T09:49:37.707Z,99353.28
2022-11-06T09:52:12.387Z,99358.47
2022-11-06T09:54:43.718Z,99353.19
2022-11-06T09:57:25.208Z,99351.06
2022-11-06T09:59:52.791Z,99349.91
2022-11-06T10:02:32.816Z,99348.97
2022-11-06T10:05:19.181Z,99349.03
2022-11-06T10:07:46.351Z,99346.13
2022-11-06T10:10:17.695Z,99346.25
2022-11-06T10:13:03.493Z,99345.78
2022-11-06T10:15:34.632Z,99343.25
2022-11-06T10:18:10.963Z,99335.69
2022-11-06T10:20:41.884Z,99342.59
2022-11-06T10:23:16.038Z,99342.78
2022-11-06T10:25:44.885Z,99331.13
2022-11-06T10:28:31.113Z,99337.00
2022-11-06T10:31:03.810Z,99335.38
2022-11-06T10:33:34.502Z,99348.13
2022-11-06T10:36:03.344Z,99339.63
2022-11-06T10:38:34.407Z,99338.00
2022-11-06T10:41:02.130Z,99334.31
2022-11-06T10:43:32.268Z,99319.28
2022-11-06T10:46:11.990Z,99321.97
2022-11-06T10:48:41.718Z,99330.84
2022-11-06T10:51:15.099Z,99332.31
2022-11-06T10:54:01.655Z,99326.97
2022-11-06T10:56:47.722Z,99323.47
2022-11-06T10:59:15.107Z,99323.44
2022-11-06T11:01:42.411Z,99314.97
2022-11-06T11:04:09.689Z,99309.22
2022-11-06T11:06:41.395Z,99310.22
2022-11-06T11:09:29.357Z,99305.91
2022-11-06T11:11:57.025Z,99303.28
2022-11-06T11:14:25.375Z,99306.16
2022-11-06T11:16:52.858Z,99299.56
2022-11-06T11:19:47.046Z,99303.84
2022-11-06T11:22:19.127Z,99304.97
2022-11-06T11:24:58.635Z,99305.91
2022-11-06T11:27:25.775Z,99314.22
2022-11-06T11:29:53.412Z,99311.38
2022-11-06T11:32:21.077Z,99314.72
2022-11-06T11:34:55.358Z,99315.16
2022-11-06T11:37:36.650Z,99309.69
2022-11-06T11:40:21.044Z,99304.41
2022-11-06T11:42:49.572Z,99306.81
2022-11-06T11:45:18.244Z,99302.28
2022-11-06T11:47:49.316Z,99309.09
2022-11-06T11:50:18.718Z,99307.25
2022-11-06T11:52:46.376Z,99306.94
2022-11-06T11:55:16.809Z,99299.09
2022-11-06T11:57:44.774Z,99303.59
2022-11-06T12:00:15.510Z,99294.59
2022-11-06T12:02:44.082Z,99301.69
2022-11-06T12:05:12.711Z,99304.53
2022-11-06T12:07:50.039Z,99304.69
2022-11-06T12:10:20.428Z,99296.69
2022-11-06T12:12:50.023Z,99301.06
2022-11-06T12:15:28.315Z,99298.91
2022-11-06T12:18:01.177Z,99298.38
2022-11-06T12:20:34.700Z,99297.59
2022-11-06T12:23:02.095Z,99296.72
2022-11-06T12:25:34.354Z,99300.53
2022-11-06T12:28:02.924Z,99298.28
2022-11-06T12:30:30.121Z,99296.88
2022-11-06T12:33:06.845Z,99298.59
2022-11-06T12:35:36.086Z,99298.72
2022-11-06T12:38:18.803Z,99293.03
2022-11-06T12:40:50.292Z,99300.41
2022-11-06T12:43:17.746Z,99287.56
2022-11-06T12:45:54.062Z,99302.06
2022-11-06T12:48:21.794Z,99300.37
2022-11-06T12:50:51.818Z,99313.56
2022-11-06T12:53:30.943Z,99308.19
2022-11-06T12:55:59.674Z,99311.25
2022-11-06T12:58:41.765Z,99304.75
2022-11-06T13:01:25.554Z,99307.97
2022-11-06T13:03:53.013Z,99306.63
2022-11-06T13:06:20.514Z,99304.41
2022-11-06T13:08:54.390Z,99301.53
2022-11-06T13:11:34.101Z,99310.09
2022-11-06T13:14:19.854Z,99302.47
2022-11-06T13:16:56.846Z,99304.34
2022-11-06T13:19:32.138Z,99304.12
2022-11-06T13:22:18.406Z,99298.53
2022-11-06T13:24:54.682Z,99296.59
2022-11-06T13:27:31.688Z,99296.47
2022-11-06T13:30:06.548Z,99301.31
2022-11-06T13:32:34.672Z,99292.25
2022-11-06T13:35:02.239Z,99285.00
2022-11-06T13:37:39.752Z,99292.34
2022-11-06T13:40:10.799Z,99292.84
2022-11-06T13:42:39.632Z,99291.22
2022-11-06T13:45:07.538Z,99293.69
2022-11-06T13:48:04.175Z,99290.63
2022-11-06T13:50:41.563Z,99295.41
2022-11-06T13:53:18.264Z,99288.34
2022-11-06T13:55:45.753Z,99286.44
2022-11-06T13:58:33.143Z,99284.72
2022-11-06T14:01:19.811Z,99277.22
2022-11-06T14:04:01.939Z,99275.41
2022-11-06T14:06:30.048Z,99267.88
2022-11-06T14:08:59.026Z,99279.19
2022-11-06T14:11:36.482Z,99279.38
2022-11-06T14:14:10.235Z,99276.87
2022-11-06T14:16:40.913Z,99275.75
2022-11-06T14:19:11.868Z,99270.84
2022-11-06T14:21:39.471Z,99267.09
2022-11-06T14:24:06.666Z,99273.78
2022-11-06T14:26:52.553Z,99264.69
2022-11-06T14:29:26.244Z,99274.44
2022-11-06T14:32:08.657Z,99270.75
2022-11-06T14:34:37.100Z,99275.06
2022-11-06T14:37:31.347Z,99284.53
2022-11-06T14:39:58.670Z,99282.03
2022-11-06T14:42:30.427Z,99271.72
2022-11-06T14:44:58.394Z,99278.03
2022-11-06T14:47:41.646Z,99281.47
2022-11-06T14:50:08.981Z,99278.69
2022-11-06T14:52:40.984Z,99283.28
2022-11-06T14:55:08.241Z,99284.84
2022-11-06T14:57:40.215Z,99299.03
2022-11-06T15:00:09.664Z,99293.25
2022-11-06T15:02:37.857Z,99298.66
2022-11-06T15:05:06.267Z,99294.66
2022-11-06T15:08:03.165Z,99297.19
2022-11-06T15:10:47.031Z,99300.16
2022-11-06T15:13:17.716Z,99306.47
2022-11-06T15:15:45.933Z,99304.34
2022-11-06T15:18:15.157Z,99308.47
2022-11-06T15:20:44.495Z,99309.59
2022-11-06T15:23:15.810Z,99303.84
2022-11-06T15:25:50.204Z,99303.56
2022-11-06T15:28:22.522Z,99302.25
2022-11-06T15:31:02.136Z,99306.66
2022-11-06T15:33:33.900Z,99301.19
2022-11-06T15:36:02.614Z,99302.00
2022-11-06T15:38:37.332Z,99301.69
2022-11-06T15:41:05.723Z,99300.78
2022-11-06T15:43:34.045Z,99294.44
2022-11-06T15:46:07.755Z,99303.41
2022-11-06T15:48:43.856Z,99301.69
2022-11-06T15:51:20.929Z,99297.94
2022-11-06T15:53:49.583Z,99298.81
2022-11-06T15:56:17.946Z,99300.56
2022-11-06T15:58:45.411Z,99300.22
2022-11-06T16:01:13.237Z,99286.50
2022-11-06T16:03:47.367Z,99292.53
2022-11-06T16:06:14.775Z,99298.94
2022-11-06T16:08:42.234Z,99301.66
2022-11-06T16:11:14.804Z,99295.75
2022-11-06T16:13:43.056Z,99306.41
2022-11-06T16:16:45.872Z,99300.37
2022-11-06T16:19:22.093Z,99299.41
2022-11-06T16:21:51.301Z,99305.66
2022-11-06T16:24:18.796Z,99301.47
2022-11-06T16:26:47.310Z,99301.47
2022-11-06T16:29:18.929Z,99301.41
2022-11-06T16:31:48.712Z,99302.31
2022-11-06T16:34:19.974Z,99306.09
2022-11-06T16:37:04.019Z,99310.94
2022-11-06T16:39:48.287Z,99303.72
2022-11-06T16:42:22.939Z,99304.62
2022-11-06T16:45:05.268Z,99308.06
2022-11-06T16:47:33.388Z,99305.72
2022-11-06T16:50:02.233Z,99305.13
2022-11-06T16:52:31.747Z,99308.34
2022-11-06T16:55:01.063Z,99304.81
2022-11-06T16:57:32.306Z,99306.56
2022-11-06T17:00:09.222Z,99302.00
2022-11-06T17:02:37.573Z,99307.87
2022-11-06T17:05:11.753Z,99311.28
2022-11-06T17:07:39.537Z,99303.81
2022-11-06T17:10:27.874Z,99308.09
2022-11-06T17:12:55.237Z,99313.19
2022-11-06T17:15:22.992Z,99319.84
2022-11-06T17:17:53.868Z,99313.31
2022-11-06T17:20:21.073Z,99309.09
2022-11-06T17:22:51.132Z,99306.06
2022-11-06T17:25:18.909Z,99313.88
2022-11-06T17:27:46.661Z,99310.59
2022-11-06T17:30:15.367Z,99317.13
2022-11-06T17:32:43.140Z,99316.28
2022-11-06T17:35:10.970Z,99314.47
2022-11-06T17:37:39.134Z,99318.75
2022-11-06T17:40:07.137Z,99316.81
2022-11-06T17:42:34.921Z,99319.78
2022-11-06T17:45:02.588Z,99308.25
2022-11-06T17:47:30.970Z,99314.66
2022-11-06T17:49:59.795Z,99324.00
2022-11-06T17:52:27.920Z,99317.56
2022-11-06T17:54:55.681Z,99323.91
2022-11-06T17:57:24.392Z,99329.44
2022-11-06T17:59:52.287Z,99329.97
2022-11-06T18:02:47.648Z,99338.97
2022-11-06T18:05:13.614Z,99337.31
2022-11-06T18:07:42.772Z,99336.09
2022-11-06T18:10:12.795Z,99337.41
2022-11-06T18:12:40.207Z,99342.47
2022-11-06T18:15:07.624Z,99338.03
2022-11-06T18:17:35.646Z,99338.97
2022-11-06T18:20:06.408Z,99340.66
2022-11-06T18:22:34.413Z,99341.44
2022-11-06T18:25:02.434Z,99338.81
2022-11-06T18:27:33.065Z,99334.88
2022-11-06T18:30:00.679Z,99340.19
2022-11-06T18:32:28.796Z,99340.28
2022-11-06T18:34:56.552Z,99335.69
2022-11-06T18:37:27.267Z,99339.28
2022-11-06T18:39:55.348Z,99334.66
2022-11-06T18:42:23.174Z,99337.87
2022-11-06T18:44:52.952Z,99336.97
2022-11-06T18:47:21.125Z,99341.91
2022-11-06T18:49:56.226Z,99347.03
2022-11-06T18:52:51.660Z,99348.66
2022-11-06T18:55:14.821Z,99339.72
2022-11-06T18:57:43.234Z,99342.41
2022-11-06T19:00:13.702Z,99339.56
2022-11-06T19:02:41.257Z,99341.31
2022-11-06T19:05:09.432Z,99343.84
2022-11-06T19:07:37.259Z,99355.06
2022-11-06T19:10:06.271Z,99353.00
2022-11-06T19:12:34.751Z,99348.53
2022-11-06T19:15:03.601Z,99350.72
2022-11-06T19:17:31.512Z,99348.03
2022-11-06T19:19:59.859Z,99344.69
2022-11-06T19:22:29.819Z,99351.38
2022-11-06T19:24:57.549Z,99339.63
2022-11-06T19:27:25.688Z,99341.22
2022-11-06T19:29:54.159Z,99337.66
2022-11-06T19:32:22.125Z,99333.13
2022-11-06T19:34:50.473Z,99331.22
2022-11-06T19:37:17.954Z,99333.44
2022-11-06T19:39:45.747Z,99326.34
2022-11-06T19:42:13.773Z,99330.34
2022-11-06T19:44:41.684Z,99329.25
2022-11-06T19:47:18.688Z,99327.41
2022-11-06T19:49:46.986Z,99342.72
2022-11-06T19:52:41.790Z,99345.94
2022-11-06T19:55:25.966Z,99339.66
2022-11-06T19:57:57.887Z,99336.84
2022-11-06T20:00:38.594Z,99337.84
2022-11-06T20:03:07.141Z,99341.25
2022-11-06T20:05:35.120Z,99337.81
2022-11-06T20:08:03.014Z,99335.06
2022-11-06T20:10:31.131Z,99341.25
2022-11-06T20:12:59.317Z,99339.41
2022-11-06T20:15:28.828Z,99339.38
2022-11-06T20:17:56.441Z,99346.50
2022-11-06T20:20:23.995Z,99349.75
2022-11-06T20:22:51.829Z,99343.69
2022-11-06T20:25:19.975Z,99346.16
2022-11-06T20:27:47.770Z,99357.69
2022-11-06T20:30:15.628Z,99354.00
2022-11-06T20:32:44.521Z,99355.94
2022-11-06T20:35:16.320Z,99357.50
2022-11-06T20:37:44.736Z,99359.63
2022-11-06T20:40:13.466Z,99363.78
2022-11-06T20:42:40.859Z,99376.87
2022-11-06T20:45:08.995Z,99370.63
2022-11-06T20:47:36.860Z,99376.63
2022-11-06T20:50:05.296Z,99373.12
2022-11-06T20:52:33.361Z,99374.00
2022-11-06T20:55:01.341Z,99372.19
2022-11-06T20:57:29.173Z,99368.69
2022-11-06T21:00:00.689Z,99375.94
2022-11-06T21:02:28.555Z,99371.75
2022-11-06T21:04:56.280Z,99363.84
2022-11-06T21:07:23.938Z,99364.78
2022-11-06T21:09:51.594Z,99361.94
2022-11-06T21:12:20.389Z,99369.88
2022-11-06T21:14:48.923Z,99360.22
2022-11-06T21:17:16.718Z,99366.38
2022-11-06T21:19:46.468Z,99371.53
2022-11-06T21:22:14.431Z,99368.19
2022-11-06T21:24:41.982Z,99380.69
2022-11-06T21:27:10.913Z,99372.81
2022-11-06T21:29:38.901Z,99369.13
2022-11-06T21:32:06.486Z,99367.41
2022-11-06T21:34:34.140Z,99367.22
2022-11-06T21:37:03.135Z,99376.97
2022-11-06T21:39:35.968Z,99379.56
2022-11-06T21:42:05.945Z,99379.59
2022-11-06T21:44:33.250Z,99386.34
2022-11-06T21:47:00.741Z,99380.06
2022-11-06T21:49:28.249Z,99384.28
2022-11-06T21:52:15.328Z,99384.13
2022-11-06T21:55:01.812Z,99377.94
2022-11-06T21:57:28.997Z,99389.97
2022-11-06T21:59:56.913Z,99383.94
2022-11-06T22:02:24.190Z,99386.84
2022-11-06T22:04:51.708Z,99387.81
2022-11-06T22:07:18.841Z,99393.66
2022-11-06T22:09:45.971Z,99388.28
2022-11-06T22:12:13.353Z,99397.03
2022-11-06T22:14:40.484Z,99396.09
2022-11-06T22:17:07.596Z,99397.16
2022-11-06T22:19:35.004Z,99388.44
2022-11-06T22:22:02.117Z,99397.06
2022-11-06T22:24:29.518Z,99400.59
2022-11-06T22:26:56.912Z,99392.63
2022-11-06T22:29:24.112Z,99389.06
2022-11-06T22:31:52.345Z,99392.69
2022-11-06T22:34:19.727Z,99387.28
2022-11-06T22:36:46.869Z,99381.94
2022-11-06T22:39:14.069Z,99383.84
2022-11-06T22:41:41.493Z,99379.59
2022-11-06T22:44:09.281Z,99391.19
2022-11-06T22:46:36.453Z,99388.88
2022-11-06T22:49:04.700Z,99389.06
2022-11-06T22:51:32.731Z,99388.94
2022-11-06T22:54:00.256Z,99387.34
2022-11-06T22:56:28.168Z,99387.88
2022-11-06T22:58:55.650Z,99384.53
2022-11-06T23:01:23.870Z,99382.22
2022-11-06T23:03:51.390Z,99379.91
2022-11-06T23:06:18.499Z,99382.59
2022-11-06T23:08:47.193Z,99376.63
2022-11-06T23:11:15.195Z,99379.50
2022-11-06T23:13:43.846Z,99376.06
2022-11-06T23:16:12.727Z,99374.88
2022-11-06T23:18:40.127Z,99374.38
2022-11-06T23:21:13.288Z,99380.62
2022-11-06T23:23:41.423Z,99391.09
2022-11-06T23:26:26.526Z,99383.44
2022-11-06T23:28:54.880Z,99383.91
2022-11-06T23:31:22.032Z,99384.59
2022-11-06T23:33:49.194Z,99381.13
2022-11-06T23:36:17.109Z,99386.16
2022-11-06T23:38:44.461Z,99382.53
2022-11-06T23:41:31.787Z,99385.16
2022-11-06T23:43:59.289Z,99385.25
2022-11-06T23:46:27.727Z,99386.06
2022-11-06T23:48:55.048Z,99388.56
2022-11-06T23:51:22.995Z,99390.09
2022-11-06T23:53:50.115Z,99395.59
2022-11-06T23:56:17.278Z,99388.59
2022-11-06T23:58:44.809Z,99385.78
